createdAt,value
2016-12-31T00:00:37.668Z,0
2016-12-31T00:01:37.637Z,0
2016-12-31T00:02:37.618Z,0
2016-12-31T00:03:37.593Z,0
2016-12-31T00:04:37.569Z,0
2016-12-31T00:05:37.545Z,0
2016-12-31T00:06:37.523Z,0
2016-12-31T00:07:37.493Z,0
2016-12-31T00:08:37.525Z,0
2016-12-31T00:09:37.848Z,0
2016-12-31T00:10:37.422Z,0
2016-12-31T00:11:37.407Z,0
2016-12-31T00:12:37.378Z,0
2016-12-31T00:13:37.360Z,0
2016-12-31T00:14:37.338Z,0
2016-12-31T00:15:37.311Z,0
2016-12-31T00:16:37.282Z,0
2016-12-31T00:17:37.259Z,0
2016-12-31T00:18:37.234Z,0
2016-12-31T00:19:37.213Z,0
2016-12-31T00:20:37.197Z,0
2016-12-31T00:21:37.162Z,0
2016-12-31T00:22:37.142Z,0
2016-12-31T00:23:37.125Z,0
2016-12-31T00:24:37.515Z,0
2016-12-31T00:25:37.472Z,0
2016-12-31T00:26:37.059Z,0
2016-12-31T00:27:37.021Z,0
2016-12-31T00:28:37.015Z,0
2016-12-31T00:29:36.970Z,0
2016-12-31T00:30:37.347Z,0
2016-12-31T00:31:36.926Z,0
2016-12-31T00:32:37.307Z,0
2016-12-31T00:33:36.884Z,0
2016-12-31T00:34:36.857Z,0
2016-12-31T00:35:36.831Z,0
2016-12-31T00:36:36.811Z,0
2016-12-31T00:37:36.783Z,0
2016-12-31T00:38:36.762Z,0
2016-12-31T00:39:37.135Z,0
2016-12-31T00:40:36.711Z,0
2016-12-31T00:41:36.693Z,0
2016-12-31T00:42:37.259Z,0
2016-12-31T00:43:36.710Z,0
2016-12-31T00:44:36.617Z,0
2016-12-31T00:45:36.626Z,0
2016-12-31T00:46:36.570Z,0
2016-12-31T00:47:36.542Z,0
2016-12-31T00:48:36.526Z,0
2016-12-31T00:49:36.500Z,0
2016-12-31T00:50:36.479Z,0
2016-12-31T00:51:36.474Z,0
2016-12-31T00:52:36.453Z,0
2016-12-31T00:53:36.459Z,0
2016-12-31T00:54:36.381Z,0
2016-12-31T00:55:36.383Z,0
2016-12-31T00:56:36.329Z,0
2016-12-31T00:57:36.302Z,0
2016-12-31T00:58:36.292Z,0
2016-12-31T00:59:36.263Z,0
2016-12-31T01:00:36.238Z,0
2016-12-31T01:01:36.214Z,0
2016-12-31T01:02:36.178Z,0
2016-12-31T01:03:36.165Z,0
2016-12-31T01:04:36.176Z,0
2016-12-31T01:05:36.111Z,0
2016-12-31T01:06:36.492Z,0
2016-12-31T01:07:36.064Z,0
2016-12-31T01:08:36.041Z,0
2016-12-31T01:09:36.019Z,0
2016-12-31T01:10:36.005Z,0
2016-12-31T01:11:36.039Z,0
2016-12-31T01:12:35.957Z,0
2016-12-31T01:13:35.918Z,0
2016-12-31T01:14:35.904Z,0
2016-12-31T01:15:35.876Z,0
2016-12-31T01:16:35.874Z,0
2016-12-31T01:17:35.824Z,0
2016-12-31T01:18:35.806Z,0
2016-12-31T01:19:35.776Z,0
2016-12-31T01:20:35.759Z,0
2016-12-31T01:21:35.728Z,0
2016-12-31T01:22:35.705Z,0
2016-12-31T01:23:35.685Z,0
2016-12-31T01:24:36.052Z,0
2016-12-31T01:25:35.635Z,0
2016-12-31T01:26:35.608Z,0
2016-12-31T01:27:35.586Z,0
2016-12-31T01:28:35.560Z,0
2016-12-31T01:29:35.550Z,0
2016-12-31T01:30:35.509Z,0
2016-12-31T01:31:35.882Z,0
2016-12-31T01:32:35.466Z,0
2016-12-31T01:33:35.435Z,0
2016-12-31T01:34:35.416Z,0
2016-12-31T01:35:35.799Z,0
2016-12-31T01:36:35.766Z,0
2016-12-31T01:37:35.344Z,0
2016-12-31T01:38:35.321Z,0
2016-12-31T01:39:35.288Z,0
2016-12-31T01:40:35.277Z,0
2016-12-31T01:41:35.245Z,0
2016-12-31T01:42:35.227Z,0
2016-12-31T01:43:35.196Z,0
2016-12-31T01:44:35.174Z,0
2016-12-31T01:45:35.154Z,0
2016-12-31T01:46:35.123Z,0
2016-12-31T01:47:35.500Z,0
2016-12-31T01:48:35.468Z,0
2016-12-31T01:49:35.055Z,0
2016-12-31T01:50:35.048Z,0
2016-12-31T01:51:35.010Z,0
2016-12-31T01:52:34.982Z,0
2016-12-31T01:53:34.964Z,0
2016-12-31T01:54:34.932Z,0
2016-12-31T01:55:34.903Z,0
2016-12-31T01:56:34.888Z,0
2016-12-31T01:57:34.868Z,0
2016-12-31T01:58:34.864Z,0
2016-12-31T01:59:34.820Z,0
2016-12-31T02:00:34.785Z,0
2016-12-31T02:01:34.771Z,0
2016-12-31T02:02:34.753Z,0
2016-12-31T02:03:34.717Z,0
2016-12-31T02:04:34.696Z,0
2016-12-31T02:05:34.669Z,0
2016-12-31T02:06:34.653Z,0
2016-12-31T02:07:34.629Z,0
2016-12-31T02:08:34.653Z,0
2016-12-31T02:09:34.574Z,0
2016-12-31T02:10:34.548Z,0
2016-12-31T02:11:34.915Z,0
2016-12-31T02:12:34.505Z,0
2016-12-31T02:13:34.477Z,0
2016-12-31T02:14:34.455Z,0
2016-12-31T02:15:34.439Z,0
2016-12-31T02:16:34.400Z,0
2016-12-31T02:17:34.794Z,0
2016-12-31T02:18:34.355Z,0
2016-12-31T02:19:34.342Z,0
2016-12-31T02:20:34.329Z,0
2016-12-31T02:21:34.687Z,0
2016-12-31T02:22:34.256Z,0
2016-12-31T02:23:34.238Z,0
2016-12-31T02:24:34.209Z,0
2016-12-31T02:25:34.179Z,0
2016-12-31T02:26:34.165Z,0
2016-12-31T02:27:34.130Z,0
2016-12-31T02:28:34.115Z,0
2016-12-31T02:29:34.088Z,0
2016-12-31T02:30:34.059Z,0
2016-12-31T02:31:34.041Z,0
2016-12-31T02:32:34.022Z,0
2016-12-31T02:33:33.997Z,0
2016-12-31T02:34:33.963Z,0
2016-12-31T02:35:33.937Z,0
2016-12-31T02:36:33.954Z,0
2016-12-31T02:37:33.911Z,0
2016-12-31T02:38:33.869Z,0
2016-12-31T02:39:33.842Z,0
2016-12-31T02:40:33.816Z,0
2016-12-31T02:41:34.194Z,0
2016-12-31T02:42:49.073Z,0
2016-12-31T02:43:33.744Z,0
2016-12-31T02:44:33.719Z,0
2016-12-31T02:45:33.697Z,0
2016-12-31T02:46:33.672Z,0
2016-12-31T02:47:33.643Z,0
2016-12-31T02:48:33.624Z,0
2016-12-31T02:49:33.604Z,0
2016-12-31T02:50:33.964Z,0
2016-12-31T02:51:33.553Z,0
2016-12-31T02:52:33.923Z,0
2016-12-31T02:53:33.496Z,0
2016-12-31T02:54:33.477Z,0
2016-12-31T02:55:33.847Z,0
2016-12-31T02:56:33.426Z,0
2016-12-31T02:57:33.400Z,0
2016-12-31T02:58:33.374Z,0
2016-12-31T02:59:33.345Z,0
2016-12-31T03:00:33.324Z,0
2016-12-31T03:01:33.309Z,0
2016-12-31T03:02:33.307Z,0
2016-12-31T03:03:33.252Z,0
2016-12-31T03:04:33.229Z,0
2016-12-31T03:05:33.206Z,0
2016-12-31T03:06:33.175Z,0
2016-12-31T03:07:33.154Z,0
2016-12-31T03:08:33.127Z,0
2016-12-31T03:09:33.111Z,0
2016-12-31T03:10:33.077Z,0
2016-12-31T03:11:33.056Z,0
2016-12-31T03:12:33.032Z,0
2016-12-31T03:13:33.013Z,0
2016-12-31T03:14:32.982Z,0
2016-12-31T03:15:32.954Z,0
2016-12-31T03:16:32.984Z,0
2016-12-31T03:17:32.904Z,0
2016-12-31T03:18:32.886Z,0
2016-12-31T03:19:33.265Z,0
2016-12-31T03:20:32.886Z,0
2016-12-31T03:21:32.811Z,0
2016-12-31T03:22:32.781Z,0
2016-12-31T03:23:32.760Z,0
2016-12-31T03:24:32.740Z,0
2016-12-31T03:25:32.712Z,0
2016-12-31T03:26:32.684Z,0
2016-12-31T03:27:33.059Z,0
2016-12-31T03:28:32.635Z,0
2016-12-31T03:29:32.614Z,0
2016-12-31T03:30:32.588Z,0
2016-12-31T03:31:32.560Z,0
2016-12-31T03:32:32.557Z,0
2016-12-31T03:33:32.525Z,0
2016-12-31T03:34:32.480Z,0
2016-12-31T03:35:32.467Z,0
2016-12-31T03:36:32.438Z,0
2016-12-31T03:37:32.416Z,0
2016-12-31T03:38:32.385Z,0
2016-12-31T03:39:32.389Z,0
2016-12-31T03:40:32.368Z,0
2016-12-31T03:41:32.368Z,0
2016-12-31T03:42:32.290Z,0
2016-12-31T03:43:32.267Z,0
2016-12-31T03:44:32.240Z,0
2016-12-31T03:45:32.245Z,0
2016-12-31T03:46:32.195Z,0
2016-12-31T03:47:32.164Z,0
2016-12-31T03:48:32.145Z,0
2016-12-31T03:49:32.156Z,0
2016-12-31T03:50:32.094Z,0
2016-12-31T03:51:32.080Z,0
2016-12-31T03:52:32.049Z,0
2016-12-31T03:53:32.026Z,0
2016-12-31T03:54:31.996Z,0
2016-12-31T03:55:31.975Z,0
2016-12-31T03:56:31.944Z,0
2016-12-31T03:57:31.930Z,0
2016-12-31T03:58:31.895Z,0
2016-12-31T03:59:31.875Z,0
2016-12-31T04:00:31.856Z,0
2016-12-31T04:01:31.817Z,0
2016-12-31T04:02:32.197Z,0
2016-12-31T04:03:31.765Z,0
2016-12-31T04:04:31.743Z,0
2016-12-31T04:05:32.117Z,0
2016-12-31T04:06:31.706Z,0
2016-12-31T04:07:31.669Z,0
2016-12-31T04:08:31.647Z,0
2016-12-31T04:09:32.027Z,0
2016-12-31T04:10:31.616Z,0
2016-12-31T04:11:31.992Z,0
2016-12-31T04:12:31.947Z,0
2016-12-31T04:13:31.519Z,0
2016-12-31T04:14:31.510Z,0
2016-12-31T04:15:31.479Z,0
2016-12-31T04:16:31.472Z,0
2016-12-31T04:17:31.423Z,0
2016-12-31T04:18:31.401Z,0
2016-12-31T04:19:31.373Z,0
2016-12-31T04:20:31.348Z,0
2016-12-31T04:21:31.349Z,0
2016-12-31T04:22:31.295Z,0
2016-12-31T04:23:31.272Z,0
2016-12-31T04:24:31.292Z,0
2016-12-31T04:25:31.221Z,0
2016-12-31T04:26:31.201Z,0
2016-12-31T04:27:31.177Z,0
2016-12-31T04:28:31.546Z,0
2016-12-31T04:29:31.120Z,0
2016-12-31T04:30:31.113Z,0
2016-12-31T04:31:31.073Z,0
2016-12-31T04:32:31.046Z,0
2016-12-31T04:33:31.020Z,0
2016-12-31T04:34:30.999Z,0
2016-12-31T04:35:30.974Z,0
2016-12-31T04:36:30.948Z,0
2016-12-31T04:37:30.920Z,0
2016-12-31T04:38:30.900Z,0
2016-12-31T04:39:30.873Z,0
2016-12-31T04:40:30.875Z,0
2016-12-31T04:41:30.839Z,0
2016-12-31T04:42:30.795Z,0
2016-12-31T04:43:30.771Z,0
2016-12-31T04:44:30.758Z,0
2016-12-31T04:45:30.720Z,0
2016-12-31T04:46:30.692Z,0
2016-12-31T04:47:30.673Z,0
2016-12-31T04:48:30.653Z,0
2016-12-31T04:49:30.621Z,0
2016-12-31T04:50:30.596Z,0
2016-12-31T04:51:30.571Z,0
2016-12-31T04:52:30.550Z,0
2016-12-31T04:53:30.527Z,0
2016-12-31T04:54:30.494Z,0
2016-12-31T04:55:30.863Z,0
2016-12-31T04:56:30.444Z,0
2016-12-31T04:57:30.827Z,0
2016-12-31T04:58:30.393Z,0
2016-12-31T04:59:30.372Z,0
2016-12-31T05:00:30.403Z,0
2016-12-31T05:01:30.325Z,0
2016-12-31T05:02:30.298Z,0
2016-12-31T05:03:30.269Z,0
2016-12-31T05:04:30.647Z,0
2016-12-31T05:05:30.219Z,0
2016-12-31T05:06:30.197Z,0
2016-12-31T05:07:30.199Z,0
2016-12-31T05:08:30.151Z,0
2016-12-31T05:09:30.134Z,0
2016-12-31T05:10:30.553Z,0
2016-12-31T05:11:30.098Z,0
2016-12-31T05:12:30.061Z,0
2016-12-31T05:13:30.020Z,0
2016-12-31T05:14:30.000Z,0
2016-12-31T05:15:29.968Z,0
2016-12-31T05:16:29.955Z,0
2016-12-31T05:17:29.926Z,0
2016-12-31T05:18:29.895Z,0
2016-12-31T05:19:29.874Z,0
2016-12-31T05:20:29.848Z,0
2016-12-31T05:21:29.817Z,0
2016-12-31T05:22:29.799Z,0
2016-12-31T05:23:29.769Z,0
2016-12-31T05:24:29.753Z,0
2016-12-31T05:25:29.732Z,0
2016-12-31T05:26:29.732Z,0
2016-12-31T05:27:30.091Z,0
2016-12-31T05:28:29.651Z,0
2016-12-31T05:29:29.647Z,0
2016-12-31T05:30:29.606Z,0
2016-12-31T05:31:29.583Z,0
2016-12-31T05:32:29.551Z,0
2016-12-31T05:33:29.529Z,0
2016-12-31T05:34:29.502Z,0
2016-12-31T05:35:29.478Z,0
2016-12-31T05:36:29.848Z,0
2016-12-31T05:37:29.426Z,0
2016-12-31T05:38:29.403Z,0
2016-12-31T05:39:29.373Z,0
2016-12-31T05:40:29.351Z,0
2016-12-31T05:41:29.319Z,0
2016-12-31T05:42:29.701Z,0
2016-12-31T05:43:29.272Z,0
2016-12-31T05:44:29.252Z,0
2016-12-31T05:45:29.219Z,0
2016-12-31T05:46:29.194Z,0
2016-12-31T05:47:29.183Z,0
2016-12-31T05:48:29.147Z,0
2016-12-31T05:49:29.527Z,0
2016-12-31T05:50:29.099Z,0
2016-12-31T05:51:29.070Z,0
2016-12-31T05:52:29.451Z,0
2016-12-31T05:53:29.018Z,0
2016-12-31T05:54:29.398Z,0
2016-12-31T05:55:28.981Z,0
2016-12-31T05:56:28.952Z,0
2016-12-31T05:57:28.920Z,0
2016-12-31T05:58:28.902Z,0
2016-12-31T05:59:28.875Z,0
2016-12-31T06:00:28.844Z,0
2016-12-31T06:01:28.854Z,0
2016-12-31T06:02:28.808Z,0
2016-12-31T06:03:28.772Z,0
2016-12-31T06:04:28.752Z,0
2016-12-31T06:05:28.730Z,0
2016-12-31T06:06:28.699Z,0
2016-12-31T06:07:28.717Z,0
2016-12-31T06:08:28.652Z,0
2016-12-31T06:09:28.624Z,0
2016-12-31T06:10:28.595Z,0
2016-12-31T06:11:28.569Z,0
2016-12-31T06:12:28.551Z,0
2016-12-31T06:13:28.524Z,0
2016-12-31T06:14:28.493Z,0
2016-12-31T06:15:28.472Z,0
2016-12-31T06:16:28.457Z,0
2016-12-31T06:17:28.443Z,0
2016-12-31T06:18:28.405Z,0
2016-12-31T06:19:28.372Z,0
2016-12-31T06:20:28.359Z,0
2016-12-31T06:21:28.322Z,0
2016-12-31T06:22:28.311Z,0
2016-12-31T06:23:28.280Z,0
2016-12-31T06:24:28.249Z,0
2016-12-31T06:25:28.224Z,0
2016-12-31T06:26:28.196Z,0
2016-12-31T06:27:28.219Z,0
2016-12-31T06:28:28.142Z,0
2016-12-31T06:29:28.121Z,0
2016-12-31T06:30:28.107Z,0
2016-12-31T06:31:28.080Z,0
2016-12-31T06:32:28.051Z,0
2016-12-31T06:33:28.023Z,0
2016-12-31T06:34:28.004Z,0
2016-12-31T06:35:27.971Z,0
2016-12-31T06:36:27.949Z,0
2016-12-31T06:37:27.923Z,0
2016-12-31T06:38:27.907Z,0
2016-12-31T06:39:28.279Z,0
2016-12-31T06:40:27.850Z,0
2016-12-31T06:41:27.824Z,0
2016-12-31T06:42:27.798Z,0
2016-12-31T06:43:27.983Z,0
2016-12-31T06:44:27.754Z,0
2016-12-31T06:45:28.040Z,0
2016-12-31T06:46:27.702Z,0
2016-12-31T06:47:27.674Z,0
2016-12-31T06:48:27.654Z,0
2016-12-31T06:49:27.624Z,0
2016-12-31T06:50:27.602Z,0
2016-12-31T06:51:27.576Z,0
2016-12-31T06:52:27.552Z,0
2016-12-31T06:53:27.523Z,0
2016-12-31T06:54:27.531Z,0
2016-12-31T06:55:27.472Z,0
2016-12-31T06:56:27.451Z,0
2016-12-31T06:57:27.428Z,0
2016-12-31T06:58:27.408Z,0
2016-12-31T06:59:27.396Z,0
2016-12-31T07:00:27.831Z,0
2016-12-31T07:01:27.323Z,0
2016-12-31T07:02:27.701Z,0
2016-12-31T07:03:27.323Z,0
2016-12-31T07:04:27.251Z,0
2016-12-31T07:05:27.230Z,0
2016-12-31T07:06:27.235Z,0
2016-12-31T07:07:27.182Z,0
2016-12-31T07:08:27.152Z,0
2016-12-31T07:09:27.149Z,0
2016-12-31T07:10:27.125Z,0
2016-12-31T07:11:27.079Z,0
2016-12-31T07:12:27.051Z,0
2016-12-31T07:13:27.428Z,0
2016-12-31T07:14:27.000Z,0
2016-12-31T07:15:26.981Z,0
2016-12-31T07:16:26.982Z,0
2016-12-31T07:17:26.927Z,0
2016-12-31T07:18:26.903Z,0
2016-12-31T07:19:26.881Z,0
2016-12-31T07:20:26.856Z,0
2016-12-31T07:21:26.832Z,0
2016-12-31T07:22:26.811Z,0
2016-12-31T07:23:26.792Z,0
2016-12-31T07:24:26.801Z,0
2016-12-31T07:25:26.766Z,0
2016-12-31T07:26:26.704Z,0
2016-12-31T07:27:26.698Z,0
2016-12-31T07:28:26.655Z,0
2016-12-31T07:29:26.653Z,0
2016-12-31T07:30:26.604Z,0
2016-12-31T07:31:26.581Z,0
2016-12-31T07:32:26.564Z,0
2016-12-31T07:33:26.537Z,5
2016-12-31T07:34:26.504Z,5
2016-12-31T07:35:26.479Z,5
2016-12-31T07:36:26.854Z,5
2016-12-31T07:37:26.433Z,5
2016-12-31T07:38:26.409Z,5
2016-12-31T07:39:26.383Z,5
2016-12-31T07:40:26.358Z,5
2016-12-31T07:41:26.329Z,5
2016-12-31T07:42:26.309Z,5
2016-12-31T07:43:26.318Z,5
2016-12-31T07:44:26.703Z,5
2016-12-31T07:45:26.232Z,10
2016-12-31T07:46:26.226Z,10
2016-12-31T07:47:26.177Z,10
2016-12-31T07:48:26.155Z,10
2016-12-31T07:49:26.137Z,10
2016-12-31T07:50:26.110Z,10
2016-12-31T07:51:26.083Z,10
2016-12-31T07:52:26.064Z,10
2016-12-31T07:53:26.031Z,15
2016-12-31T07:54:26.026Z,15
2016-12-31T07:55:26.006Z,15
2016-12-31T07:56:25.964Z,15
2016-12-31T07:57:25.937Z,15
2016-12-31T07:58:25.908Z,20
2016-12-31T07:59:25.884Z,20
2016-12-31T08:00:25.858Z,20
2016-12-31T08:01:25.831Z,20
2016-12-31T08:02:25.831Z,20
2016-12-31T08:03:26.193Z,25
2016-12-31T08:04:25.767Z,25
2016-12-31T08:05:25.730Z,25
2016-12-31T08:06:26.109Z,25
2016-12-31T08:07:25.690Z,25
2016-12-31T08:08:25.662Z,30
2016-12-31T08:09:25.663Z,30
2016-12-31T08:10:25.620Z,30
2016-12-31T08:11:25.995Z,30
2016-12-31T08:12:25.561Z,30
2016-12-31T08:13:25.540Z,30
2016-12-31T08:14:25.519Z,30
2016-12-31T08:15:25.491Z,30
2016-12-31T08:16:25.469Z,35
2016-12-31T08:17:25.447Z,35
2016-12-31T08:18:25.420Z,35
2016-12-31T08:19:25.393Z,35
2016-12-31T08:20:25.368Z,40
2016-12-31T08:21:25.357Z,40
2016-12-31T08:22:25.329Z,40
2016-12-31T08:23:25.311Z,45
2016-12-31T08:24:25.678Z,45
2016-12-31T08:25:25.251Z,45
2016-12-31T08:26:25.228Z,50
2016-12-31T08:27:25.195Z,50
2016-12-31T08:28:25.178Z,55
2016-12-31T08:29:25.155Z,55
2016-12-31T08:30:25.183Z,55
2016-12-31T08:31:25.111Z,60
2016-12-31T08:32:25.107Z,55
2016-12-31T08:33:25.055Z,60
2016-12-31T08:34:25.074Z,60
2016-12-31T08:35:25.022Z,60
2016-12-31T08:36:24.991Z,65
2016-12-31T08:37:25.032Z,65
2016-12-31T08:38:25.338Z,65
2016-12-31T08:39:24.912Z,65
2016-12-31T08:40:24.892Z,65
2016-12-31T08:41:25.363Z,65
2016-12-31T08:42:24.844Z,70
2016-12-31T08:43:25.015Z,65
2016-12-31T08:44:24.791Z,65
2016-12-31T08:45:24.770Z,65
2016-12-31T08:46:24.752Z,60
2016-12-31T08:47:24.749Z,70
2016-12-31T08:48:24.698Z,70
2016-12-31T08:49:25.068Z,75
2016-12-31T08:50:24.655Z,70
2016-12-31T08:51:24.629Z,80
2016-12-31T08:52:24.632Z,80
2016-12-31T08:53:24.583Z,80
2016-12-31T08:54:24.556Z,90
2016-12-31T08:55:24.535Z,85
2016-12-31T08:56:24.514Z,90
2016-12-31T08:57:24.508Z,90
2016-12-31T08:58:24.467Z,90
2016-12-31T08:59:24.438Z,90
2016-12-31T09:00:24.411Z,100
2016-12-31T09:01:24.389Z,90
2016-12-31T09:02:24.364Z,95
2016-12-31T09:03:24.337Z,100
2016-12-31T09:04:24.721Z,95
2016-12-31T09:05:25.093Z,95
2016-12-31T09:06:24.278Z,95
2016-12-31T09:07:24.248Z,85
2016-12-31T09:08:24.225Z,95
2016-12-31T09:09:24.593Z,95
2016-12-31T09:10:24.179Z,90
2016-12-31T09:11:24.156Z,100
2016-12-31T09:12:24.140Z,105
2016-12-31T09:13:24.113Z,105
2016-12-31T09:14:24.090Z,105
2016-12-31T09:15:24.063Z,95
2016-12-31T09:16:24.040Z,100
2016-12-31T09:17:24.011Z,105
2016-12-31T09:18:23.994Z,95
2016-12-31T09:19:23.976Z,110
2016-12-31T09:20:23.963Z,110
2016-12-31T09:21:23.937Z,110
2016-12-31T09:22:24.704Z,110
2016-12-31T09:23:24.281Z,110
2016-12-31T09:24:23.857Z,100
2016-12-31T09:25:23.831Z,105
2016-12-31T09:26:23.816Z,100
2016-12-31T09:27:23.837Z,110
2016-12-31T09:28:23.769Z,115
2016-12-31T09:29:23.738Z,120
2016-12-31T09:30:23.730Z,125
2016-12-31T09:31:23.690Z,120
2016-12-31T09:32:23.664Z,130
2016-12-31T09:33:23.650Z,140
2016-12-31T09:34:23.625Z,145
2016-12-31T09:35:23.602Z,135
2016-12-31T09:36:23.576Z,155
2016-12-31T09:37:23.562Z,155
2016-12-31T09:38:23.533Z,145
2016-12-31T09:39:23.511Z,135
2016-12-31T09:40:23.487Z,145
2016-12-31T09:41:23.465Z,145
2016-12-31T09:42:23.442Z,145
2016-12-31T09:43:23.422Z,145
2016-12-31T09:44:23.394Z,155
2016-12-31T09:45:23.372Z,185
2016-12-31T09:46:23.353Z,190
2016-12-31T09:47:23.358Z,175
2016-12-31T09:48:23.702Z,175
2016-12-31T09:49:23.284Z,180
2016-12-31T09:50:23.263Z,170
2016-12-31T09:51:23.240Z,160
2016-12-31T09:52:23.220Z,140
2016-12-31T09:53:23.196Z,125
2016-12-31T09:54:23.169Z,125
2016-12-31T09:55:23.149Z,125
2016-12-31T09:56:23.126Z,120
2016-12-31T09:57:23.183Z,115
2016-12-31T09:58:23.081Z,105
2016-12-31T09:59:23.063Z,110
2016-12-31T10:00:23.034Z,105
2016-12-31T10:01:23.020Z,90
2016-12-31T10:02:23.447Z,85
2016-12-31T10:03:22.972Z,75
2016-12-31T10:04:22.992Z,70
2016-12-31T10:05:22.927Z,70
2016-12-31T10:06:22.906Z,70
2016-12-31T10:07:22.893Z,70
2016-12-31T10:08:22.870Z,70
2016-12-31T10:09:22.840Z,70
2016-12-31T10:10:22.819Z,70
2016-12-31T10:11:22.796Z,70
2016-12-31T10:12:22.775Z,70
2016-12-31T10:13:22.754Z,70
2016-12-31T10:14:22.761Z,70
2016-12-31T10:15:22.707Z,75
2016-12-31T10:16:22.684Z,75
2016-12-31T10:17:22.660Z,75
2016-12-31T10:18:22.645Z,75
2016-12-31T10:19:22.617Z,70
2016-12-31T10:20:22.591Z,70
2016-12-31T10:21:22.568Z,70
2016-12-31T10:22:22.942Z,75
2016-12-31T10:23:22.526Z,80
2016-12-31T10:24:22.501Z,80
2016-12-31T10:25:22.500Z,85
2016-12-31T10:26:22.460Z,85
2016-12-31T10:27:22.436Z,85
2016-12-31T10:28:22.414Z,80
2016-12-31T10:29:22.389Z,85
2016-12-31T10:30:22.369Z,90
2016-12-31T10:31:22.366Z,95
2016-12-31T10:32:22.332Z,95
2016-12-31T10:33:22.312Z,95
2016-12-31T10:34:22.276Z,95
2016-12-31T10:35:23.047Z,90
2016-12-31T10:36:22.230Z,95
2016-12-31T10:37:22.213Z,100
2016-12-31T10:38:22.189Z,100
2016-12-31T10:39:22.165Z,100
2016-12-31T10:40:22.178Z,95
2016-12-31T10:41:22.116Z,95
2016-12-31T10:42:22.097Z,85
2016-12-31T10:43:22.323Z,90
2016-12-31T10:44:22.053Z,90
2016-12-31T10:45:22.039Z,95
2016-12-31T10:46:22.006Z,95
2016-12-31T10:47:21.987Z,100
2016-12-31T10:48:21.967Z,100
2016-12-31T10:49:21.945Z,105
2016-12-31T10:50:22.315Z,100
2016-12-31T10:51:21.894Z,115
2016-12-31T10:52:21.864Z,105
2016-12-31T10:53:21.862Z,100
2016-12-31T10:54:21.832Z,105
2016-12-31T10:55:21.810Z,100
2016-12-31T10:56:21.780Z,105
2016-12-31T10:57:22.155Z,100
2016-12-31T10:58:21.741Z,105
2016-12-31T10:59:21.714Z,105
2016-12-31T11:00:21.716Z,120
2016-12-31T11:01:21.674Z,130
2016-12-31T11:02:21.654Z,130
2016-12-31T11:03:21.623Z,105
2016-12-31T11:04:21.609Z,80
2016-12-31T11:05:21.587Z,80
2016-12-31T11:06:21.562Z,75
2016-12-31T11:07:21.532Z,75
2016-12-31T11:08:21.515Z,65
2016-12-31T11:09:21.566Z,75
2016-12-31T11:10:21.478Z,65
2016-12-31T11:11:21.452Z,65
2016-12-31T11:12:21.426Z,80
2016-12-31T11:13:21.400Z,80
2016-12-31T11:14:21.377Z,75
2016-12-31T11:15:21.364Z,70
2016-12-31T11:16:21.358Z,60
2016-12-31T11:17:21.714Z,55
2016-12-31T11:18:21.287Z,60
2016-12-31T11:19:21.264Z,65
2016-12-31T11:20:21.243Z,70
2016-12-31T11:21:21.223Z,70
2016-12-31T11:22:21.199Z,70
2016-12-31T11:23:21.192Z,70
2016-12-31T11:24:21.164Z,70
2016-12-31T11:25:21.149Z,65
2016-12-31T11:26:21.121Z,65
2016-12-31T11:27:21.096Z,60
2016-12-31T11:28:21.074Z,65
2016-12-31T11:29:21.044Z,65
2016-12-31T11:30:21.017Z,65
2016-12-31T11:31:21.002Z,65
2016-12-31T11:32:21.019Z,60
2016-12-31T11:33:20.955Z,60
2016-12-31T11:34:20.943Z,60
2016-12-31T11:35:20.964Z,65
2016-12-31T11:36:21.286Z,70
2016-12-31T11:37:20.871Z,65
2016-12-31T11:38:20.839Z,70
2016-12-31T11:39:21.211Z,70
2016-12-31T11:40:20.822Z,75
2016-12-31T11:41:21.182Z,80
2016-12-31T11:42:20.769Z,80
2016-12-31T11:43:21.174Z,85
2016-12-31T11:44:20.730Z,90
2016-12-31T11:45:20.701Z,90
2016-12-31T11:46:21.103Z,85
2016-12-31T11:47:20.646Z,90
2016-12-31T11:48:20.629Z,90
2016-12-31T11:49:20.597Z,85
2016-12-31T11:50:20.588Z,90
2016-12-31T11:51:20.555Z,90
2016-12-31T11:52:20.544Z,85
2016-12-31T11:53:20.530Z,85
2016-12-31T11:54:20.749Z,85
2016-12-31T11:55:20.471Z,85
2016-12-31T11:56:20.447Z,80
2016-12-31T11:57:20.436Z,75
2016-12-31T11:58:20.801Z,75
2016-12-31T11:59:20.384Z,65
2016-12-31T12:00:21.060Z,70
2016-12-31T12:01:20.328Z,60
2016-12-31T12:02:20.308Z,65
2016-12-31T12:03:20.299Z,65
2016-12-31T12:04:20.264Z,70
2016-12-31T12:05:20.238Z,75
2016-12-31T12:06:20.222Z,70
2016-12-31T12:07:20.199Z,70
2016-12-31T12:08:20.188Z,60
2016-12-31T12:09:20.158Z,65
2016-12-31T12:10:20.133Z,65
2016-12-31T12:11:20.108Z,65
2016-12-31T12:12:20.088Z,60
2016-12-31T12:13:20.069Z,55
2016-12-31T12:14:20.057Z,60
2016-12-31T12:15:20.025Z,60
2016-12-31T12:16:20.051Z,55
2016-12-31T12:17:19.975Z,55
2016-12-31T12:18:19.958Z,55
2016-12-31T12:19:19.931Z,55
2016-12-31T12:20:19.966Z,55
2016-12-31T12:21:19.901Z,55
2016-12-31T12:22:19.871Z,55
2016-12-31T12:23:20.248Z,55
2016-12-31T12:24:20.223Z,55
2016-12-31T12:25:19.809Z,55
2016-12-31T12:26:19.781Z,55
2016-12-31T12:27:19.765Z,55
2016-12-31T12:28:19.732Z,55
2016-12-31T12:29:19.715Z,65
2016-12-31T12:30:19.692Z,70
2016-12-31T12:31:19.667Z,65
2016-12-31T12:32:19.656Z,75
2016-12-31T12:33:19.635Z,75
2016-12-31T12:34:19.596Z,75
2016-12-31T12:35:19.575Z,75
2016-12-31T12:36:19.953Z,70
2016-12-31T12:37:19.580Z,70
2016-12-31T12:38:19.553Z,75
2016-12-31T12:39:19.501Z,80
2016-12-31T12:40:19.471Z,80
2016-12-31T12:41:19.857Z,90
2016-12-31T12:42:19.426Z,100
2016-12-31T12:43:19.437Z,100
2016-12-31T12:44:19.407Z,100
2016-12-31T12:45:19.395Z,100
2016-12-31T12:46:19.375Z,95
2016-12-31T12:47:19.314Z,95
2016-12-31T12:48:19.300Z,95
2016-12-31T12:49:19.271Z,95
2016-12-31T12:50:19.251Z,90
2016-12-31T12:51:19.230Z,90
2016-12-31T12:52:19.206Z,90
2016-12-31T12:53:19.187Z,100
2016-12-31T12:54:19.161Z,105
2016-12-31T12:55:19.142Z,100
2016-12-31T12:56:19.117Z,95
2016-12-31T12:57:19.094Z,95
2016-12-31T12:58:19.470Z,95
2016-12-31T12:59:19.055Z,105
2016-12-31T13:00:19.026Z,100
2016-12-31T13:01:19.041Z,95
2016-12-31T13:02:19.378Z,95
2016-12-31T13:03:19.365Z,90
2016-12-31T13:04:18.942Z,90
2016-12-31T13:05:18.933Z,90
2016-12-31T13:06:18.898Z,95
2016-12-31T13:07:18.880Z,90
2016-12-31T13:08:18.864Z,85
2016-12-31T13:09:18.833Z,90
2016-12-31T13:10:18.808Z,90
2016-12-31T13:11:18.788Z,90
2016-12-31T13:12:18.767Z,90
2016-12-31T13:13:18.747Z,95
2016-12-31T13:14:18.732Z,90
2016-12-31T13:15:19.118Z,85
2016-12-31T13:16:18.689Z,85
2016-12-31T13:17:18.719Z,80
2016-12-31T13:18:18.641Z,80
2016-12-31T13:19:18.616Z,85
2016-12-31T13:20:18.594Z,90
2016-12-31T13:21:18.574Z,90
2016-12-31T13:22:18.608Z,85
2016-12-31T13:23:18.531Z,80
2016-12-31T13:24:18.511Z,80
2016-12-31T13:25:18.493Z,80
2016-12-31T13:26:18.473Z,85
2016-12-31T13:27:18.463Z,85
2016-12-31T13:28:18.422Z,85
2016-12-31T13:29:18.406Z,80
2016-12-31T13:30:18.387Z,80
2016-12-31T13:31:18.363Z,75
2016-12-31T13:32:18.341Z,80
2016-12-31T13:33:18.710Z,80
2016-12-31T13:34:18.324Z,75
2016-12-31T13:35:18.281Z,70
2016-12-31T13:36:18.257Z,70
2016-12-31T13:37:18.242Z,65
2016-12-31T13:38:18.209Z,65
2016-12-31T13:39:18.203Z,65
2016-12-31T13:40:18.172Z,65
2016-12-31T13:41:18.156Z,65
2016-12-31T13:42:18.139Z,65
2016-12-31T13:43:18.543Z,70
2016-12-31T13:44:18.090Z,70
2016-12-31T13:45:18.110Z,65
2016-12-31T13:46:18.057Z,65
2016-12-31T13:47:18.034Z,60
2016-12-31T13:48:18.406Z,60
2016-12-31T13:49:18.025Z,65
2016-12-31T13:50:18.011Z,60
2016-12-31T13:51:17.963Z,60
2016-12-31T13:52:17.976Z,55
2016-12-31T13:53:18.300Z,55
2016-12-31T13:54:17.901Z,55
2016-12-31T13:55:17.922Z,55
2016-12-31T13:56:17.843Z,55
2016-12-31T13:57:17.819Z,55
2016-12-31T13:58:18.262Z,50
2016-12-31T13:59:17.796Z,50
2016-12-31T14:00:17.782Z,55
2016-12-31T14:01:17.977Z,55
2016-12-31T14:02:17.715Z,50
2016-12-31T14:03:18.533Z,50
2016-12-31T14:04:17.684Z,50
2016-12-31T14:05:17.678Z,45
2016-12-31T14:06:17.632Z,45
2016-12-31T14:07:17.627Z,45
2016-12-31T14:08:17.661Z,40
2016-12-31T14:09:17.595Z,45
2016-12-31T14:10:17.562Z,40
2016-12-31T14:11:17.525Z,40
2016-12-31T14:12:17.510Z,40
2016-12-31T14:13:17.533Z,40
2016-12-31T14:14:17.461Z,40
2016-12-31T14:15:17.459Z,40
2016-12-31T14:16:17.816Z,40
2016-12-31T14:17:17.471Z,40
2016-12-31T14:18:17.378Z,40
2016-12-31T14:19:17.372Z,40
2016-12-31T14:20:17.404Z,40
2016-12-31T14:21:17.726Z,40
2016-12-31T14:22:17.296Z,40
2016-12-31T14:23:17.288Z,40
2016-12-31T14:24:17.712Z,35
2016-12-31T14:25:17.633Z,35
2016-12-31T14:26:17.223Z,35
2016-12-31T14:27:17.208Z,30
2016-12-31T14:28:17.202Z,30
2016-12-31T14:29:17.560Z,30